UKX1625 EGPH-EGGW
Flight info
| Callsign | UKX1625 |
|---|---|
| Flight time | N/A |
| Altitude | 33000 |
| Route | GOSAM P600 FENIK L612 NAVSO DCT AKOMU DCT VAMEB UL612 LISTO |
| Aircraft | A321/M-SDE3FGHIRWY/LB1 |
Departure
| Time | 2026-04-22 16:56 |
|---|---|
| Airport | Edinburgh Airport (EGPH) |
Arrival
| Time | N/A |
|---|---|
| Airport | London Luton Airport (EGGW) |
| Time | Latitude | Longitude | Altitude | Speed | Heading |
|---|---|---|---|---|---|
| 2026-04-22 16:32 | 55.94836 | -3.35805 | 117 ft | 0 kts | 208° |
| 2026-04-22 16:40 | 55.94835 | -3.35805 | 117 ft | 0 kts | 208° |
| 2026-04-22 16:47 | 55.94856 | -3.35785 | 115 ft | 4 kts | 209° |
| 2026-04-22 16:47 | 55.94868 | -3.35774 | 117 ft | 4 kts | 212° |
| 2026-04-22 16:47 | 55.94886 | -3.35728 | 114 ft | 4 kts | 274° |
| 2026-04-22 16:48 | 55.94879 | -3.35686 | 112 ft | 2 kts | 298° |
| 2026-04-22 16:48 | 55.94879 | -3.35684 | 114 ft | 0 kts | 298° |
| 2026-04-22 16:49 | 55.94882 | -3.35696 | 112 ft | 6 kts | 298° |
| 2026-04-22 16:50 | 55.94914 | -3.35807 | 113 ft | 11 kts | 300° |
| 2026-04-22 16:50 | 55.94972 | -3.35858 | 113 ft | 9 kts | 5° |
| 2026-04-22 16:50 | 55.95042 | -3.35850 | 116 ft | 13 kts | 326° |
| 2026-04-22 16:50 | 55.95087 | -3.35980 | 114 ft | 12 kts | 294° |
| 2026-04-22 16:51 | 55.95116 | -3.36124 | 116 ft | 13 kts | 288° |
| 2026-04-22 16:51 | 55.95130 | -3.36272 | 116 ft | 12 kts | 260° |
| 2026-04-22 16:51 | 55.95096 | -3.36393 | 116 ft | 10 kts | 239° |
| 2026-04-22 16:51 | 55.95045 | -3.36539 | 114 ft | 19 kts | 239° |
| 2026-04-22 16:52 | 55.94966 | -3.36768 | 112 ft | 22 kts | 238° |
| 2026-04-22 16:52 | 55.94889 | -3.36996 | 113 ft | 21 kts | 240° |
| 2026-04-22 16:52 | 55.94818 | -3.37213 | 114 ft | 20 kts | 239° |
| 2026-04-22 16:52 | 55.94749 | -3.37418 | 113 ft | 19 kts | 239° |
| 2026-04-22 16:53 | 55.94684 | -3.37611 | 113 ft | 18 kts | 238° |
| 2026-04-22 16:53 | 55.94623 | -3.37791 | 113 ft | 16 kts | 239° |
| 2026-04-22 16:53 | 55.94565 | -3.37962 | 112 ft | 17 kts | 238° |
| 2026-04-22 16:53 | 55.94485 | -3.38195 | 113 ft | 25 kts | 238° |
| 2026-04-22 16:54 | 55.94397 | -3.38456 | 113 ft | 24 kts | 239° |
| 2026-04-22 16:54 | 55.94317 | -3.38694 | 113 ft | 14 kts | 238° |
| 2026-04-22 16:54 | 55.94284 | -3.38837 | 115 ft | 12 kts | 283° |
| 2026-04-22 16:54 | 55.94363 | -3.38951 | 115 ft | 16 kts | 330° |
| 2026-04-22 16:55 | 55.94442 | -3.38895 | 113 ft | 14 kts | 56° |
| 2026-04-22 16:55 | 55.94594 | -3.38456 | 113 ft | 78 kts | 59° |
| 2026-04-22 16:55 | 55.94984 | -3.37303 | 113 ft | 136 kts | 58° |
| 2026-04-22 16:55 | 55.95533 | -3.35682 | 435 ft | 153 kts | 60° |
| 2026-04-22 16:56 | 55.96091 | -3.34111 | 1199 ft | 151 kts | 52° |
| 2026-04-22 16:56 | 55.96869 | -3.32837 | 1867 ft | 153 kts | 45° |
| 2026-04-22 16:56 | 55.97692 | -3.31532 | 2219 ft | 167 kts | 44° |
| 2026-04-22 16:56 | 55.98617 | -3.30050 | 2438 ft | 188 kts | 45° |
| 2026-04-22 16:57 | 55.99699 | -3.28499 | 2614 ft | 214 kts | 30° |
| 2026-04-22 16:57 | 56.01254 | -3.28123 | 2874 ft | 246 kts | 349° |
| 2026-04-22 16:57 | 56.02750 | -3.29732 | 3474 ft | 262 kts | 310° |
| 2026-04-22 16:57 | 56.03461 | -3.32697 | 4214 ft | 270 kts | 275° |
| 2026-04-22 16:58 | 56.03442 | -3.34968 | 4752 ft | 273 kts | 262° |
| 2026-04-22 16:58 | 56.02793 | -3.39315 | 5837 ft | 275 kts | 241° |
| 2026-04-22 16:58 | 56.01636 | -3.42010 | 6595 ft | 275 kts | 217° |
| 2026-04-22 16:58 | 55.99993 | -3.43613 | 7321 ft | 273 kts | 194° |
| 2026-04-22 16:59 | 55.98142 | -3.44551 | 8099 ft | 275 kts | 193° |
| 2026-04-22 16:59 | 55.96288 | -3.45462 | 8859 ft | 278 kts | 193° |
| 2026-04-22 16:59 | 55.94412 | -3.46383 | 9572 ft | 281 kts | 193° |
| 2026-04-22 16:59 | 55.92517 | -3.47317 | 10306 ft | 283 kts | 193° |
| 2026-04-22 17:00 | 55.90603 | -3.48259 | 10887 ft | 293 kts | 193° |
| 2026-04-22 17:00 | 55.86367 | -3.50326 | 11175 ft | 338 kts | 193° |
| 2026-04-22 17:00 | 55.84035 | -3.51462 | 11393 ft | 355 kts | 193° |
| 2026-04-22 17:01 | 55.81632 | -3.52644 | 11938 ft | 361 kts | 194° |
| 2026-04-22 17:01 | 55.79205 | -3.53846 | 12609 ft | 363 kts | 194° |
| 2026-04-22 17:01 | 55.76762 | -3.55056 | 13266 ft | 366 kts | 194° |
| 2026-04-22 17:01 | 55.74302 | -3.56272 | 13897 ft | 368 kts | 194° |
| 2026-04-22 17:02 | 55.71822 | -3.57488 | 14495 ft | 371 kts | 194° |
| 2026-04-22 17:02 | 55.69320 | -3.58707 | 15109 ft | 374 kts | 194° |
| 2026-04-22 17:02 | 55.66805 | -3.59928 | 15692 ft | 376 kts | 194° |
| 2026-04-22 17:02 | 55.64266 | -3.61157 | 16239 ft | 379 kts | 194° |
| 2026-04-22 17:03 | 55.61709 | -3.62393 | 16773 ft | 382 kts | 194° |
| 2026-04-22 17:03 | 55.59136 | -3.63641 | 17317 ft | 385 kts | 194° |
| 2026-04-22 17:03 | 55.56548 | -3.64898 | 17854 ft | 387 kts | 194° |
| 2026-04-22 17:03 | 55.53941 | -3.66161 | 18368 ft | 390 kts | 194° |
| 2026-04-22 17:04 | 55.52207 | -3.66998 | 18680 ft | 392 kts | 195° |
| 2026-04-22 17:04 | 55.48669 | -3.68696 | 19300 ft | 396 kts | 195° |
| 2026-04-22 17:04 | 55.46902 | -3.69546 | 19591 ft | 398 kts | 195° |
| 2026-04-22 17:04 | 55.44220 | -3.70844 | 20031 ft | 401 kts | 195° |
| 2026-04-22 17:05 | 55.41515 | -3.72149 | 20455 ft | 405 kts | 196° |
| 2026-04-22 17:05 | 55.38785 | -3.73458 | 20870 ft | 408 kts | 196° |
| 2026-04-22 17:05 | 55.36031 | -3.74778 | 21295 ft | 412 kts | 197° |
| 2026-04-22 17:05 | 55.32354 | -3.76540 | 21831 ft | 416 kts | 197° |
| 2026-04-22 17:06 | 55.30463 | -3.77448 | 22105 ft | 418 kts | 197° |
| 2026-04-22 17:06 | 55.27644 | -3.78788 | 22499 ft | 422 kts | 195° |
| 2026-04-22 17:06 | 55.24729 | -3.79562 | 22871 ft | 428 kts | 185° |
| 2026-04-22 17:06 | 55.21733 | -3.79340 | 23234 ft | 434 kts | 174° |
| 2026-04-22 17:07 | 55.18778 | -3.78102 | 23575 ft | 441 kts | 163° |
| 2026-04-22 17:07 | 55.15949 | -3.75921 | 23912 ft | 447 kts | 156° |
| 2026-04-22 17:07 | 55.13148 | -3.73503 | 24252 ft | 451 kts | 156° |
| 2026-04-22 17:07 | 55.10999 | -3.71650 | 24509 ft | 453 kts | 156° |